Time,TemperatureF,DewpointF,PressureIn,WindDirection,WindDirectionDegrees,WindSpeedMPH,WindSpeedGustMPH,Humidity,HourlyPrecipIn,Conditions,Clouds,dailyrainin,SoftwareType,DateUTC
2013-05-09 00:00:00,58.4,53.6,30.01,NW,325,0.0,0.0,84,0.00,,BKN100,0.00,VWS V14.01,2013-05-09 04:00:00,
2013-05-09 00:01:00,58.4,53.6,30.01,NW,324,0.0,0.0,84,0.00,,SCT200,0.00,VWS V14.01,2013-05-09 04:01:00,
2013-05-09 00:06:00,57.9,53.1,30.01,NW,324,0.0,0.0,84,0.00,,SCT200,0.00,VWS V14.01,2013-05-09 04:06:00,
2013-05-09 00:11:00,57.8,53.7,30.01,NW,324,0.0,0.0,86,0.00,,SCT200,0.00,VWS V14.01,2013-05-09 04:11:00,
2013-05-09 00:16:00,57.7,53.5,30.01,NW,325,0.0,0.0,86,0.00,,SCT200,0.00,VWS V14.01,2013-05-09 04:16:00,
2013-05-09 00:21:00,57.6,53.5,30.01,NW,324,0.0,0.0,86,0.00,,SCT200,0.00,VWS V14.01,2013-05-09 04:21:00,
2013-05-09 00:26:00,57.5,53.3,30.01,NW,324,0.0,0.0,86,0.00,,SCT200,0.00,VWS V14.01,2013-05-09 04:26:00,
2013-05-09 00:31:00,57.1,53.0,30.01,East,79,0.0,1.0,86,0.00,,SCT200,0.00,VWS V14.01,2013-05-09 04:31:00,
2013-05-09 00:36:00,56.8,52.7,30.01,East,79,0.0,0.0,86,0.00,,SCT200,0.00,VWS V14.01,2013-05-09 04:36:00,
2013-05-09 00:41:00,56.5,52.7,30.01,East,79,0.0,0.0,87,0.00,,SCT200,0.00,VWS V14.01,2013-05-09 04:41:00,
2013-05-09 00:46:00,56.5,53.0,30.01,SE,135,1.0,1.0,88,0.00,,SCT200,0.00,VWS V14.01,2013-05-09 04:46:00,
2013-05-09 00:51:00,56.3,52.8,30.01,South,170,0.0,1.0,88,0.00,,SCT200,0.00,VWS V14.01,2013-05-09 04:51:00,
2013-05-09 00:56:00,56.2,53.0,30.01,South,170,0.0,0.0,89,0.00,,SCT200,0.00,VWS V14.01,2013-05-09 04:56:00,
2013-05-09 01:01:00,55.9,52.7,30.01,South,170,0.0,0.0,89,0.00,,CLR,0.00,VWS V14.01,2013-05-09 05:01:00,
2013-05-09 01:06:00,55.7,53.1,30.01,South,170,1.0,1.0,91,0.00,,CLR,0.00,VWS V14.01,2013-05-09 05:06:00,
2013-05-09 01:11:00,55.8,53.2,30.01,SW,235,0.0,2.0,91,0.00,,CLR,0.00,VWS V14.01,2013-05-09 05:11:00,
2013-05-09 01:16:00,55.9,53.3,30.00,SW,229,1.0,1.0,91,0.00,,CLR,0.00,VWS V14.01,2013-05-09 05:16:00,
2013-05-09 01:21:00,56.1,53.8,30.00,SW,228,0.0,1.0,92,0.00,,CLR,0.00,VWS V14.01,2013-05-09 05:21:00,
2013-05-09 01:26:00,56.1,53.5,30.00,SW,228,0.0,0.0,91,0.00,,CLR,0.00,VWS V14.01,2013-05-09 05:26:00,
2013-05-09 01:31:00,55.6,52.7,30.00,SW,228,0.0,0.0,90,0.00,,CLR,0.00,VWS V14.01,2013-05-09 05:31:00,
2013-05-09 01:36:00,55.0,52.4,30.00,SW,229,0.0,0.0,91,0.00,,CLR,0.00,VWS V14.01,2013-05-09 05:36:00,
2013-05-09 01:41:00,54.9,52.6,30.00,SW,228,0.0,0.0,92,0.00,,CLR,0.00,VWS V14.01,2013-05-09 05:41:00,
2013-05-09 01:46:00,54.9,52.6,29.99,SW,228,0.0,0.0,92,0.00,,CLR,0.00,VWS V14.01,2013-05-09 05:46:00,
2013-05-09 01:51:00,54.8,52.5,29.99,SW,228,0.0,0.0,92,0.00,,CLR,0.00,VWS V14.01,2013-05-09 05:51:00,
2013-05-09 01:56:00,54.3,52.0,29.99,SW,228,0.0,0.0,92,0.00,,CLR,0.00,VWS V14.01,2013-05-09 05:56:00,
2013-05-09 02:01:00,54.2,52.2,29.99,SW,228,0.0,0.0,93,0.00,,CLR,0.00,VWS V14.01,2013-05-09 06:01:00,
2013-05-09 02:06:00,54.3,52.3,29.99,SW,228,0.0,0.0,93,0.00,,CLR,0.00,VWS V14.01,2013-05-09 06:06:00,
2013-05-09 02:11:00,53.9,51.9,29.99,SW,228,0.0,0.0,93,0.00,,CLR,0.00,VWS V14.01,2013-05-09 06:11:00,
2013-05-09 02:16:00,53.5,51.5,29.99,SW,228,0.0,0.0,93,0.00,,CLR,0.00,VWS V14.01,2013-05-09 06:16:00,
2013-05-09 02:21:00,53.7,52.3,29.99,SSW,203,1.0,2.0,95,0.00,,CLR,0.00,VWS V14.01,2013-05-09 06:21:00,
2013-05-09 02:26:00,53.9,52.2,29.99,SSW,207,0.0,1.0,94,0.00,,CLR,0.00,VWS V14.01,2013-05-09 06:26:00,
2013-05-09 02:31:00,53.9,52.5,29.98,SSW,207,0.0,0.0,95,0.00,,CLR,0.00,VWS V14.01,2013-05-09 06:31:00,
2013-05-09 02:36:00,53.6,51.9,29.99,SSW,207,0.0,1.0,94,0.00,,CLR,0.00,VWS V14.01,2013-05-09 06:36:00,
2013-05-09 02:41:00,53.9,52.8,29.99,SSW,207,0.0,0.0,96,0.00,,CLR,0.00,VWS V14.01,2013-05-09 06:41:00,
2013-05-09 02:46:00,54.1,52.7,29.99,SSW,207,0.0,0.0,95,0.00,,CLR,0.00,VWS V14.01,2013-05-09 06:46:00,
2013-05-09 02:51:00,53.9,52.5,29.99,SSW,207,0.0,0.0,95,0.00,,CLR,0.00,VWS V14.01,2013-05-09 06:51:00,
2013-05-09 02:56:00,53.8,52.4,29.99,SSW,207,0.0,0.0,95,0.00,,CLR,0.00,VWS V14.01,2013-05-09 06:56:00,
2013-05-09 03:01:00,53.4,52.0,29.99,SSW,207,0.0,1.0,95,0.00,,CLR,0.00,VWS V14.01,2013-05-09 07:01:00,
2013-05-09 03:06:00,53.4,52.3,29.99,WSW,250,0.0,1.0,96,0.00,,CLR,0.00,VWS V14.01,2013-05-09 07:06:00,
2013-05-09 03:11:00,53.6,52.5,29.99,West,277,0.0,1.0,96,0.00,,CLR,0.00,VWS V14.01,2013-05-09 07:11:00,
2013-05-09 03:16:00,53.6,52.2,29.99,West,277,0.0,1.0,95,0.00,,CLR,0.00,VWS V14.01,2013-05-09 07:16:00,
2013-05-09 03:21:00,53.6,52.5,29.99,West,274,0.0,0.0,96,0.00,,CLR,0.00,VWS V14.01,2013-05-09 07:21:00,
2013-05-09 03:26:00,53.7,52.6,29.99,SW,231,0.0,0.0,96,0.00,,CLR,0.00,VWS V14.01,2013-05-09 07:26:00,
2013-05-09 03:31:00,53.8,52.7,29.99,SW,232,0.0,0.0,96,0.00,,CLR,0.00,VWS V14.01,2013-05-09 07:31:00,
2013-05-09 03:36:00,53.9,52.8,29.99,SSW,207,1.0,2.0,96,0.00,,CLR,0.00,VWS V14.01,2013-05-09 07:36:00,
2013-05-09 03:41:00,53.8,52.7,29.98,SSW,203,0.0,0.0,96,0.00,,CLR,0.00,VWS V14.01,2013-05-09 07:41:00,
2013-05-09 03:46:00,53.4,52.0,29.98,SSW,203,0.0,0.0,95,0.00,,CLR,0.00,VWS V14.01,2013-05-09 07:46:00,
2013-05-09 03:51:00,53.1,51.7,29.98,SSW,203,0.0,0.0,95,0.00,,CLR,0.00,VWS V14.01,2013-05-09 07:51:00,
2013-05-09 03:56:00,53.0,51.9,29.99,SSW,203,0.0,0.0,96,0.00,,CLR,0.00,VWS V14.01,2013-05-09 07:56:00,
2013-05-09 04:01:00,52.8,51.4,29.98,SSW,203,0.0,0.0,95,0.00,,CLR,0.00,VWS V14.01,2013-05-09 08:01:00,
2013-05-09 04:06:00,52.5,51.4,29.98,SSE,148,0.0,1.0,96,0.00,,CLR,0.00,VWS V14.01,2013-05-09 08:06:00,
2013-05-09 04:11:00,52.5,51.4,29.99,SE,135,0.0,1.0,96,0.00,,CLR,0.00,VWS V14.01,2013-05-09 08:11:00,
2013-05-09 04:16:00,52.2,51.1,29.99,South,177,1.0,1.0,96,0.00,,CLR,0.00,VWS V14.01,2013-05-09 08:16:00,
2013-05-09 04:21:00,52.0,50.9,29.99,West,260,0.0,1.0,96,0.00,,CLR,0.00,VWS V14.01,2013-05-09 08:21:00,
2013-05-09 04:26:00,52.3,51.5,29.99,West,260,0.0,0.0,97,0.00,,CLR,0.00,VWS V14.01,2013-05-09 08:26:00,
2013-05-09 04:31:00,52.7,51.9,29.99,WSW,249,0.0,0.0,97,0.00,,CLR,0.00,VWS V14.01,2013-05-09 08:31:00,
2013-05-09 04:36:00,52.9,52.1,29.99,SW,229,1.0,2.0,97,0.00,,CLR,0.00,VWS V14.01,2013-05-09 08:36:00,
2013-05-09 04:41:00,53.2,52.4,29.99,SSW,201,1.0,1.0,97,0.00,,CLR,0.00,VWS V14.01,2013-05-09 08:41:00,
2013-05-09 04:46:00,53.4,52.6,29.99,WSW,252,3.0,3.0,97,0.00,,CLR,0.00,VWS V14.01,2013-05-09 08:46:00,
2013-05-09 04:51:00,53.6,52.8,29.99,SW,236,0.0,1.0,97,0.00,,CLR,0.00,VWS V14.01,2013-05-09 08:51:00,
2013-05-09 04:56:00,53.7,52.9,29.99,WSW,238,1.0,2.0,97,0.00,,CLR,0.00,VWS V14.01,2013-05-09 08:56:00,
2013-05-09 05:01:00,53.7,52.9,29.99,SW,228,0.0,1.0,97,0.00,,SCT150,0.00,VWS V14.01,2013-05-09 09:01:00,
2013-05-09 05:06:00,53.6,52.5,29.99,SW,228,0.0,0.0,96,0.00,,SCT150,0.00,VWS V14.01,2013-05-09 09:06:00,
2013-05-09 05:11:00,53.6,52.5,30.00,SW,229,0.0,0.0,96,0.00,,SCT150,0.00,VWS V14.01,2013-05-09 09:11:00,
2013-05-09 05:16:00,53.5,52.7,29.99,West,264,0.0,1.0,97,0.00,,SCT150,0.00,VWS V14.01,2013-05-09 09:16:00,
2013-05-09 05:21:00,53.5,52.4,29.99,WSW,253,0.0,0.0,96,0.00,,SCT150,0.00,VWS V14.01,2013-05-09 09:21:00,
2013-05-09 05:26:00,53.2,52.1,30.00,WSW,253,0.0,0.0,96,0.00,,SCT150,0.00,VWS V14.01,2013-05-09 09:26:00,
2013-05-09 05:31:00,53.0,51.9,30.00,WSW,253,0.0,0.0,96,0.00,,SCT150,0.00,VWS V14.01,2013-05-09 09:31:00,
2013-05-09 05:36:00,52.9,51.8,29.99,WSW,253,0.0,0.0,96,0.00,,SCT150,0.00,VWS V14.01,2013-05-09 09:36:00,
2013-05-09 05:41:00,52.6,51.5,30.00,WSW,253,0.0,0.0,96,0.00,,SCT150,0.00,VWS V14.01,2013-05-09 09:41:00,
2013-05-09 05:46:00,52.5,51.4,30.00,WSW,253,0.0,0.0,96,0.00,,SCT150,0.00,VWS V14.01,2013-05-09 09:46:00,
2013-05-09 05:51:00,52.2,51.1,30.00,WSW,252,0.0,0.0,96,0.00,,SCT150,0.00,VWS V14.01,2013-05-09 09:51:00,
2013-05-09 05:56:00,52.1,51.3,30.00,WSW,255,0.0,0.0,97,0.00,,SCT150,0.00,VWS V14.01,2013-05-09 09:56:00,
2013-05-09 06:01:00,52.2,51.4,30.01,WSW,253,0.0,0.0,97,0.00,,SCT150,0.00,VWS V14.01,2013-05-09 10:01:00,
2013-05-09 06:06:00,52.3,51.5,30.01,WSW,253,0.0,0.0,97,0.00,,SCT150,0.00,VWS V14.01,2013-05-09 10:06:00,
2013-05-09 06:11:00,52.1,51.0,30.01,WSW,253,0.0,0.0,96,0.00,,SCT150,0.00,VWS V14.01,2013-05-09 10:11:00,
2013-05-09 06:16:00,52.1,51.3,30.01,WSW,253,0.0,0.0,97,0.00,,SCT150,0.00,VWS V14.01,2013-05-09 10:16:00,
2013-05-09 06:21:00,52.1,51.3,30.01,WSW,253,0.0,0.0,97,0.00,,SCT150,0.00,VWS V14.01,2013-05-09 10:21:00,
2013-05-09 06:26:00,52.1,51.3,30.02,WSW,253,0.0,0.0,97,0.00,,SCT150,0.00,VWS V14.01,2013-05-09 10:26:00,
2013-05-09 06:31:00,52.1,51.3,30.02,WSW,253,0.0,0.0,97,0.00,,SCT150,0.00,VWS V14.01,2013-05-09 10:31:00,
2013-05-09 06:36:00,52.2,51.4,30.02,WSW,253,0.0,0.0,97,0.00,,SCT150,0.00,VWS V14.01,2013-05-09 10:36:00,
2013-05-09 06:41:00,52.2,51.1,30.02,WSW,253,0.0,0.0,96,0.00,,SCT150,0.00,VWS V14.01,2013-05-09 10:41:00,
2013-05-09 06:46:00,52.4,51.6,30.02,NE,54,0.0,0.0,97,0.00,,SCT150,0.00,VWS V14.01,2013-05-09 10:46:00,
2013-05-09 06:51:00,52.6,51.5,30.02,NE,53,0.0,0.0,96,0.00,,SCT150,0.00,VWS V14.01,2013-05-09 10:51:00,
2013-05-09 06:56:00,52.9,51.8,30.02,NE,53,0.0,0.0,96,0.00,,SCT150,0.00,VWS V14.01,2013-05-09 10:56:00,
2013-05-09 07:01:00,53.2,52.1,30.03,NE,53,0.0,0.0,96,0.00,,SCT250,0.00,VWS V14.01,2013-05-09 11:01:00,
2013-05-09 07:06:00,53.4,52.3,30.03,NE,54,0.0,0.0,96,0.00,,SCT250,0.00,VWS V14.01,2013-05-09 11:06:00,
2013-05-09 07:11:00,53.6,52.5,30.03,NE,54,0.0,0.0,96,0.00,,SCT250,0.00,VWS V14.01,2013-05-09 11:11:00,
2013-05-09 07:16:00,54.6,53.5,30.03,NE,53,0.0,0.0,96,0.00,,SCT250,0.00,VWS V14.01,2013-05-09 11:16:00,
2013-05-09 07:21:00,55.0,53.6,30.04,NE,53,0.0,0.0,95,0.00,,SCT250,0.00,VWS V14.01,2013-05-09 11:21:00,
2013-05-09 07:26:00,56.0,54.6,30.04,NE,53,0.0,0.0,95,0.00,,SCT250,0.00,VWS V14.01,2013-05-09 11:26:00,
2013-05-09 07:31:00,56.7,55.0,30.04,NE,56,0.0,1.0,94,0.00,,SCT250,0.00,VWS V14.01,2013-05-09 11:31:00,
2013-05-09 07:36:00,57.1,55.1,30.05,NE,55,0.0,0.0,93,0.00,,SCT250,0.00,VWS V14.01,2013-05-09 11:36:00,
2013-05-09 07:41:00,57.5,55.2,30.05,NE,55,0.0,0.0,92,0.00,,SCT250,0.00,VWS V14.01,2013-05-09 11:41:00,
2013-05-09 07:46:00,57.4,54.8,30.05,WSW,239,0.0,1.0,91,0.00,,SCT250,0.00,VWS V14.01,2013-05-09 11:46:00,
2013-05-09 07:51:00,57.6,55.3,30.05,WSW,242,0.0,1.0,92,0.00,,SCT250,0.00,VWS V14.01,2013-05-09 11:51:00,
2013-05-09 07:56:00,58.1,55.5,30.05,SW,229,0.0,3.0,91,0.00,,SCT250,0.00,VWS V14.01,2013-05-09 11:56:00,
2013-05-09 08:01:00,58.7,56.1,30.05,SW,229,0.0,1.0,91,0.00,,BKN085,0.00,VWS V14.01,2013-05-09 12:01:00,
2013-05-09 08:06:00,59.2,56.3,30.05,SW,221,2.0,3.0,90,0.00,,BKN085,0.00,VWS V14.01,2013-05-09 12:06:00,
2013-05-09 08:11:00,59.1,55.5,30.05,SW,229,3.0,6.0,88,0.00,,BKN085,0.00,VWS V14.01,2013-05-09 12:11:00,
2013-05-09 08:16:00,58.9,55.7,30.05,SW,219,3.0,5.0,89,0.00,,BKN085,0.00,VWS V14.01,2013-05-09 12:16:00,
2013-05-09 08:21:00,58.8,55.6,30.05,WNW,285,0.0,4.0,89,0.00,,BKN085,0.00,VWS V14.01,2013-05-09 12:21:00,
2013-05-09 08:26:00,59.3,56.4,30.05,SSW,204,2.0,3.0,90,0.00,,BKN085,0.00,VWS V14.01,2013-05-09 12:26:00,
2013-05-09 08:31:00,59.5,56.3,30.04,SSE,155,2.0,3.0,89,0.00,,BKN085,0.00,VWS V14.01,2013-05-09 12:31:00,
2013-05-09 08:36:00,59.6,56.0,30.04,SSW,211,3.0,3.0,88,0.00,,BKN085,0.00,VWS V14.01,2013-05-09 12:36:00,
2013-05-09 08:41:00,60.0,56.4,30.04,SSW,194,3.0,3.0,88,0.00,,BKN085,0.00,VWS V14.01,2013-05-09 12:41:00,
2013-05-09 08:46:00,60.5,56.6,30.04,South,172,1.0,3.0,87,0.00,,BKN085,0.00,VWS V14.01,2013-05-09 12:46:00,
2013-05-09 08:51:00,60.9,56.4,30.04,SW,217,1.0,2.0,85,0.00,,BKN085,0.00,VWS V14.01,2013-05-09 12:51:00,
2013-05-09 08:56:00,61.2,56.7,30.04,SSW,207,3.0,3.0,85,0.00,,BKN085,0.00,VWS V14.01,2013-05-09 12:56:00,
2013-05-09 09:01:00,61.6,57.0,30.04,SW,221,0.0,2.0,85,0.00,,SCT200,0.00,VWS V14.01,2013-05-09 13:01:00,
2013-05-09 09:06:00,62.0,56.8,30.05,WSW,249,0.0,3.0,83,0.00,,SCT200,0.00,VWS V14.01,2013-05-09 13:06:00,
2013-05-09 09:11:00,62.7,57.1,30.05,South,173,2.0,4.0,82,0.00,,SCT200,0.00,VWS V14.01,2013-05-09 13:11:00,
2013-05-09 09:16:00,62.9,57.7,30.05,South,191,2.0,6.0,83,0.00,,SCT200,0.00,VWS V14.01,2013-05-09 13:16:00,
2013-05-09 09:21:00,63.2,57.6,30.05,SSW,210,2.0,6.0,82,0.00,,SCT200,0.00,VWS V14.01,2013-05-09 13:21:00,
2013-05-09 09:26:00,63.4,57.5,30.05,SSW,208,5.0,7.0,81,0.00,,SCT200,0.00,VWS V14.01,2013-05-09 13:26:00,
2013-05-09 09:31:00,63.3,57.7,30.05,SW,233,3.0,7.0,82,0.00,,SCT200,0.00,VWS V14.01,2013-05-09 13:31:00,
2013-05-09 09:36:00,63.5,57.9,30.05,SW,226,3.0,8.0,82,0.00,,SCT200,0.00,VWS V14.01,2013-05-09 13:36:00,
2013-05-09 09:41:00,63.6,58.0,30.05,SW,219,4.0,6.0,82,0.00,,SCT200,0.00,VWS V14.01,2013-05-09 13:41:00,
2013-05-09 09:46:00,63.6,57.7,30.05,SSW,203,2.0,6.0,81,0.00,,SCT200,0.00,VWS V14.01,2013-05-09 13:46:00,
2013-05-09 09:51:00,63.9,58.0,30.05,West,271,1.0,8.0,81,0.00,,SCT200,0.00,VWS V14.01,2013-05-09 13:51:00,
2013-05-09 09:56:00,64.2,57.9,30.05,SW,234,7.0,8.0,80,0.00,,SCT200,0.00,VWS V14.01,2013-05-09 13:56:00,
2013-05-09 10:01:00,64.5,57.8,30.05,SSW,203,4.0,6.0,79,0.00,,SCT200,0.00,VWS V14.01,2013-05-09 14:01:00,
2013-05-09 10:06:00,65.2,58.9,30.05,SSW,203,2.0,4.0,80,0.00,,SCT200,0.00,VWS V14.01,2013-05-09 14:06:00,
2013-05-09 10:11:00,65.5,58.1,30.05,WSW,248,1.0,6.0,77,0.00,,SCT200,0.00,VWS V14.01,2013-05-09 14:11:00,
2013-05-09 10:16:00,65.6,57.8,30.05,SW,214,3.0,7.0,76,0.00,,SCT200,0.00,VWS V14.01,2013-05-09 14:16:00,
2013-05-09 10:21:00,65.8,58.4,30.05,WSW,243,1.0,4.0,77,0.00,,SCT200,0.00,VWS V14.01,2013-05-09 14:21:00,
2013-05-09 10:26:00,66.4,58.2,30.05,WNW,287,0.0,3.0,75,0.00,,SCT200,0.00,VWS V14.01,2013-05-09 14:26:00,
2013-05-09 10:31:00,66.9,58.7,30.05,WNW,290,1.0,3.0,75,0.00,,SCT200,0.00,VWS V14.01,2013-05-09 14:31:00,
2013-05-09 10:36:00,67.4,58.1,30.05,WSW,250,4.0,5.0,72,0.00,,SCT200,0.00,VWS V14.01,2013-05-09 14:36:00,
2013-05-09 10:41:00,67.9,58.5,30.05,SW,217,4.0,5.0,72,0.00,,SCT200,0.00,VWS V14.01,2013-05-09 14:41:00,
2013-05-09 10:46:00,68.1,58.0,30.05,West,265,3.0,7.0,70,0.00,,SCT200,0.00,VWS V14.01,2013-05-09 14:46:00,
2013-05-09 10:51:00,68.8,59.0,30.05,WSW,245,2.0,6.0,71,0.00,,SCT200,0.00,VWS V14.01,2013-05-09 14:51:00,
2013-05-09 10:56:00,69.3,57.9,30.05,SW,235,1.0,8.0,67,0.00,,SCT200,0.00,VWS V14.01,2013-05-09 14:56:00,
2013-05-09 11:01:00,69.3,58.7,30.05,WSW,250,4.0,8.0,69,0.00,,BKN200,0.00,VWS V14.01,2013-05-09 15:01:00,
2013-05-09 11:06:00,69.6,58.2,30.05,WSW,250,5.0,7.0,67,0.00,,BKN200,0.00,VWS V14.01,2013-05-09 15:06:00,
2013-05-09 11:11:00,70.3,58.8,30.05,West,266,8.0,11.0,67,0.00,,BKN200,0.00,VWS V14.01,2013-05-09 15:11:00,
2013-05-09 11:16:00,70.2,58.7,30.05,SSW,212,3.0,6.0,67,0.00,,BKN200,0.00,VWS V14.01,2013-05-09 15:16:00,
2013-05-09 11:21:00,70.9,59.4,30.05,WNW,302,3.0,5.0,67,0.00,,BKN200,0.00,VWS V14.01,2013-05-09 15:21:00,
2013-05-09 11:26:00,71.2,59.3,30.05,WSW,244,4.0,5.0,66,0.00,,BKN200,0.00,VWS V14.01,2013-05-09 15:26:00,
2013-05-09 11:31:00,71.7,59.3,30.05,SSW,204,3.0,5.0,65,0.00,,BKN200,0.00,VWS V14.01,2013-05-09 15:31:00,
2013-05-09 11:36:00,72.2,58.9,30.05,NW,305,5.0,8.0,63,0.00,,BKN200,0.00,VWS V14.01,2013-05-09 15:36:00,
2013-05-09 11:41:00,72.1,58.8,30.05,WNW,286,2.0,8.0,63,0.00,,BKN200,0.00,VWS V14.01,2013-05-09 15:41:00,
2013-05-09 11:46:00,72.4,58.2,30.05,WSW,238,2.0,5.0,61,0.00,,BKN200,0.00,VWS V14.01,2013-05-09 15:46:00,
2013-05-09 11:51:00,72.8,59.0,30.05,SW,229,6.0,6.0,62,0.00,,BKN200,0.00,VWS V14.01,2013-05-09 15:51:00,
2013-05-09 11:56:00,72.7,58.9,30.05,South,179,5.0,7.0,62,0.00,,BKN200,0.00,VWS V14.01,2013-05-09 15:56:00,
2013-05-09 12:01:00,72.9,58.2,30.05,NW,308,1.0,7.0,60,0.00,,BKN200,0.00,VWS V14.01,2013-05-09 16:01:00,
2013-05-09 12:06:00,73.0,58.8,30.05,WNW,293,3.0,4.0,61,0.00,,SCT200,0.00,VWS V14.01,2013-05-09 16:06:00,
2013-05-09 12:11:00,72.8,58.1,30.05,West,263,0.0,5.0,60,0.00,,SCT200,0.00,VWS V14.01,2013-05-09 16:11:00,
2013-05-09 12:16:00,73.4,58.7,30.05,SW,214,7.0,8.0,60,0.00,,SCT200,0.00,VWS V14.01,2013-05-09 16:16:00,
2013-05-09 12:21:00,73.8,59.5,30.05,SSW,203,2.0,8.0,61,0.00,,SCT200,0.00,VWS V14.01,2013-05-09 16:21:00,
2013-05-09 12:26:00,73.9,58.2,30.05,WNW,296,8.0,8.0,58,0.00,,SCT200,0.00,VWS V14.01,2013-05-09 16:26:00,
2013-05-09 12:31:00,73.7,57.0,30.05,South,176,1.0,3.0,56,0.00,,SCT200,0.00,VWS V14.01,2013-05-09 16:31:00,
2013-05-09 12:36:00,74.4,58.2,30.05,SW,222,6.0,6.0,57,0.00,,SCT200,0.00,VWS V14.01,2013-05-09 16:36:00,
2013-05-09 12:41:00,75.2,58.9,30.05,WSW,246,1.0,3.0,57,0.00,,SCT200,0.00,VWS V14.01,2013-05-09 16:41:00,
2013-05-09 12:46:00,75.0,59.2,30.05,SW,218,6.0,9.0,58,0.00,,SCT200,0.00,VWS V14.01,2013-05-09 16:46:00,
2013-05-09 12:51:00,74.7,58.5,30.05,SSW,203,9.0,9.0,57,0.00,,SCT200,0.00,VWS V14.01,2013-05-09 16:51:00,
2013-05-09 12:56:00,74.4,58.2,30.04,SW,222,3.0,8.0,57,0.00,,SCT200,0.00,VWS V14.01,2013-05-09 16:56:00,
2013-05-09 13:01:00,74.9,58.2,30.04,West,260,3.0,9.0,56,0.00,,BKN200,0.00,VWS V14.01,2013-05-09 17:01:00,
2013-05-09 13:06:00,75.0,59.2,30.05,WNW,293,3.0,6.0,58,0.00,,BKN200,0.00,VWS V14.01,2013-05-09 17:06:00,
2013-05-09 13:11:00,75.5,58.7,30.04,SW,231,1.0,3.0,56,0.00,,BKN200,0.00,VWS V14.01,2013-05-09 17:11:00,
2013-05-09 13:16:00,75.8,58.0,30.04,WNW,290,2.0,8.0,54,0.00,,BKN200,0.00,VWS V14.01,2013-05-09 17:16:00,
2013-05-09 13:21:00,75.9,58.6,30.04,SW,231,2.0,8.0,55,0.00,,BKN200,0.00,VWS V14.01,2013-05-09 17:21:00,
2013-05-09 13:25:00,76.3,59.0,30.04,West,279,2.0,3.0,55,0.00,,BKN200,0.00,VWS V14.01,2013-05-09 17:25:00,
2013-05-09 13:30:00,76.6,58.7,30.04,SW,236,4.0,5.0,54,0.00,,BKN200,0.00,VWS V14.01,2013-05-09 17:30:00,
2013-05-09 13:35:00,76.6,58.7,30.04,SW,231,4.0,7.0,54,0.00,,BKN200,0.00,VWS V14.01,2013-05-09 17:35:00,
2013-05-09 13:40:00,76.3,56.9,30.04,SSE,148,2.0,8.0,51,0.00,,BKN200,0.00,VWS V14.01,2013-05-09 17:40:00,
2013-05-09 13:45:00,76.2,57.3,30.04,SE,129,3.0,7.0,52,0.00,,BKN200,0.00,VWS V14.01,2013-05-09 17:45:00,
2013-05-09 13:50:00,76.5,57.0,30.03,SW,217,2.0,8.0,51,0.00,,BKN200,0.00,VWS V14.01,2013-05-09 17:50:00,
2013-05-09 13:55:00,76.6,56.6,30.04,SW,236,6.0,13.0,50,0.00,,BKN200,0.00,VWS V14.01,2013-05-09 17:55:00,
2013-05-09 14:00:00,76.8,57.3,30.03,SW,224,6.0,8.0,51,0.00,,BKN200,0.00,VWS V14.01,2013-05-09 18:00:00,
2013-05-09 14:05:00,77.0,57.0,30.03,WSW,255,6.0,10.0,50,0.00,,BKN200,0.00,VWS V14.01,2013-05-09 18:05:00,
2013-05-09 14:10:00,76.8,56.8,30.03,South,170,4.0,8.0,50,0.00,,BKN200,0.00,VWS V14.01,2013-05-09 18:10:00,
2013-05-09 14:15:00,76.8,56.2,30.03,SSE,152,3.0,10.0,49,0.00,,BKN200,0.00,VWS V14.01,2013-05-09 18:15:00,
2013-05-09 14:20:00,77.0,57.5,30.03,SSE,155,4.0,6.0,51,0.00,,BKN200,0.00,VWS V14.01,2013-05-09 18:20:00,
2013-05-09 14:25:00,77.5,56.3,30.03,SW,228,4.0,4.0,48,0.00,,BKN200,0.00,VWS V14.01,2013-05-09 18:25:00,
2013-05-09 14:30:00,77.4,57.3,30.02,South,184,8.0,8.0,50,0.00,,BKN200,0.00,VWS V14.01,2013-05-09 18:30:00,
2013-05-09 14:35:00,77.3,56.7,30.02,SW,228,3.0,8.0,49,0.00,,BKN200,0.00,VWS V14.01,2013-05-09 18:35:00,
2013-05-09 14:40:00,77.9,56.7,30.02,SW,236,2.0,10.0,48,0.00,,BKN200,0.00,VWS V14.01,2013-05-09 18:40:00,
2013-05-09 14:45:00,78.0,55.6,30.02,SSE,152,5.0,12.0,46,0.00,,BKN200,0.00,VWS V14.01,2013-05-09 18:45:00,
2013-05-09 14:50:00,78.1,55.7,30.02,SW,232,5.0,10.0,46,0.00,,BKN200,0.00,VWS V14.01,2013-05-09 18:50:00,
2013-05-09 14:55:00,78.2,56.9,30.02,West,278,1.0,3.0,48,0.00,,BKN200,0.00,VWS V14.01,2013-05-09 18:55:00,
2013-05-09 15:00:00,78.4,55.3,30.02,SW,214,6.0,6.0,45,0.00,,BKN060,0.00,VWS V14.01,2013-05-09 19:00:00,
2013-05-09 15:05:00,78.8,55.7,30.01,WSW,245,9.0,11.0,45,0.00,,BKN060,0.00,VWS V14.01,2013-05-09 19:05:00,
2013-05-09 15:10:00,78.2,54.5,30.01,SW,217,4.0,10.0,44,0.00,,BKN060,0.00,VWS V14.01,2013-05-09 19:10:00,
2013-05-09 15:15:00,78.0,55.0,30.02,WSW,246,3.0,4.0,45,0.00,,BKN060,0.00,VWS V14.01,2013-05-09 19:15:00,
2013-05-09 15:20:00,77.8,54.8,30.01,SW,233,5.0,9.0,45,0.00,,BKN060,0.00,VWS V14.01,2013-05-09 19:20:00,
2013-05-09 15:25:00,77.7,54.7,30.01,SW,221,7.0,10.0,45,0.00,,BKN060,0.00,VWS V14.01,2013-05-09 19:25:00,
2013-05-09 15:30:00,78.2,53.9,30.01,SW,225,6.0,8.0,43,0.00,,BKN060,0.00,VWS V14.01,2013-05-09 19:30:00,
2013-05-09 15:35:00,78.7,54.3,30.01,West,262,6.0,9.0,43,0.00,,BKN060,0.00,VWS V14.01,2013-05-09 19:35:00,
2013-05-09 15:40:00,79.1,52.7,30.01,West,276,3.0,11.0,40,0.00,,BKN060,0.00,VWS V14.01,2013-05-09 19:40:00,
2013-05-09 15:45:00,78.8,52.5,30.01,WNW,288,2.0,8.0,40,0.00,,BKN060,0.00,VWS V14.01,2013-05-09 19:45:00,
2013-05-09 15:50:00,79.0,52.6,30.01,WSW,244,6.0,8.0,40,0.00,,BKN060,0.00,VWS V14.01,2013-05-09 19:50:00,
2013-05-09 15:55:00,78.3,52.0,30.00,West,262,4.0,9.0,40,0.00,,BKN060,0.00,VWS V14.01,2013-05-09 19:55:00,
2013-05-09 16:00:00,77.8,52.2,30.00,West,269,7.0,8.0,41,0.00,,BKN200,0.00,VWS V14.01,2013-05-09 20:00:00,
2013-05-09 16:05:00,77.7,51.5,30.00,WSW,252,1.0,7.0,40,0.00,,BKN200,0.00,VWS V14.01,2013-05-09 20:05:00,
2013-05-09 16:10:00,77.8,51.6,30.00,WNW,285,3.0,5.0,40,0.00,,BKN200,0.00,VWS V14.01,2013-05-09 20:10:00,
2013-05-09 16:15:00,77.8,52.2,30.00,NW,304,2.0,2.0,41,0.00,,BKN200,0.00,VWS V14.01,2013-05-09 20:15:00,
2013-05-09 16:20:00,78.2,50.5,30.00,West,262,5.0,6.0,38,0.00,,BKN200,0.00,VWS V14.01,2013-05-09 20:20:00,
2013-05-09 16:25:00,78.5,50.8,29.99,WNW,286,1.0,3.0,38,0.00,,BKN200,0.00,VWS V14.01,2013-05-09 20:25:00,
2013-05-09 16:30:00,78.6,50.2,29.99,West,262,3.0,5.0,37,0.00,,BKN200,0.00,VWS V14.01,2013-05-09 20:30:00,
2013-05-09 16:35:00,78.4,50.0,29.99,WNW,301,4.0,5.0,37,0.00,,BKN200,0.00,VWS V14.01,2013-05-09 20:35:00,
2013-05-09 16:40:00,78.3,49.9,29.99,WSW,244,2.0,4.0,37,0.00,,BKN200,0.00,VWS V14.01,2013-05-09 20:40:00,
2013-05-09 16:45:00,78.3,49.9,29.99,WNW,301,2.0,4.0,37,0.00,,BKN200,0.00,VWS V14.01,2013-05-09 20:45:00,
2013-05-09 16:50:00,78.1,50.5,29.99,SW,226,0.0,2.0,38,0.00,,BKN200,0.00,VWS V14.01,2013-05-09 20:50:00,
2013-05-09 16:55:00,78.1,49.0,29.99,WSW,250,0.0,3.0,36,0.00,,BKN200,0.00,VWS V14.01,2013-05-09 20:55:00,
2013-05-09 17:00:00,78.0,48.9,29.98,WNW,293,3.0,3.0,36,0.00,,BKN250,0.00,VWS V14.01,2013-05-09 21:00:00,
2013-05-09 17:05:00,77.9,48.8,29.98,WSW,255,3.0,4.0,36,0.00,,BKN250,0.00,VWS V14.01,2013-05-09 21:05:00,
2013-05-09 17:10:00,78.2,50.5,29.98,WSW,256,0.0,0.0,38,0.00,,BKN250,0.00,VWS V14.01,2013-05-09 21:10:00,
2013-05-09 17:15:00,78.6,50.2,29.98,SW,236,0.0,2.0,37,0.00,,BKN250,0.00,VWS V14.01,2013-05-09 21:15:00,
2013-05-09 17:20:00,79.0,49.0,29.98,WSW,255,3.0,4.0,35,0.00,,BKN250,0.00,VWS V14.01,2013-05-09 21:20:00,
2013-05-09 17:25:00,79.1,50.6,29.98,WSW,256,4.0,5.0,37,0.00,,BKN250,0.00,VWS V14.01,2013-05-09 21:25:00,
2013-05-09 17:30:00,79.1,50.6,29.98,WSW,237,4.0,5.0,37,0.00,,BKN250,0.00,VWS V14.01,2013-05-09 21:30:00,
2013-05-09 17:35:00,78.7,49.5,29.97,NW,306,2.0,3.0,36,0.00,,BKN250,0.00,VWS V14.01,2013-05-09 21:35:00,
2013-05-09 17:40:00,78.7,51.0,29.98,West,263,2.0,2.0,38,0.00,,BKN250,0.00,VWS V14.01,2013-05-09 21:40:00,
2013-05-09 17:45:00,78.4,49.3,29.97,West,266,3.0,4.0,36,0.00,,BKN250,0.00,VWS V14.01,2013-05-09 21:45:00,
2013-05-09 17:50:00,78.3,49.2,29.98,WSW,252,3.0,3.0,36,0.00,,BKN250,0.00,VWS V14.01,2013-05-09 21:50:00,
2013-05-09 17:55:00,78.2,49.1,29.98,West,266,0.0,3.0,36,0.00,,BKN250,0.00,VWS V14.01,2013-05-09 21:55:00,
2013-05-09 18:00:00,78.3,51.3,29.98,SW,221,1.0,2.0,39,0.00,,OVC250,0.00,VWS V14.01,2013-05-09 22:00:00,
2013-05-09 18:05:00,78.2,49.8,29.98,West,267,3.0,6.0,37,0.00,,OVC250,0.00,VWS V14.01,2013-05-09 22:05:00,
2013-05-09 18:10:00,78.2,51.9,29.98,South,170,3.0,4.0,40,0.00,,OVC250,0.00,VWS V14.01,2013-05-09 22:10:00,
2013-05-09 18:15:00,78.1,51.2,29.98,WSW,252,8.0,8.0,39,0.00,,OVC250,0.00,VWS V14.01,2013-05-09 22:15:00,
2013-05-09 18:20:00,77.9,51.7,29.98,WSW,253,3.0,7.0,40,0.00,,OVC250,0.00,VWS V14.01,2013-05-09 22:20:00,
2013-05-09 18:25:00,77.8,52.2,29.98,SW,221,3.0,5.0,41,0.00,,OVC250,0.00,VWS V14.01,2013-05-09 22:25:00,
2013-05-09 18:30:00,77.8,52.2,29.98,SSW,205,2.0,4.0,41,0.00,,OVC250,0.00,VWS V14.01,2013-05-09 22:30:00,
2013-05-09 18:35:00,77.9,52.3,29.98,WSW,242,3.0,5.0,41,0.00,,OVC250,0.00,VWS V14.01,2013-05-09 22:35:00,
2013-05-09 18:40:00,77.7,52.2,29.98,SSW,208,1.0,5.0,41,0.00,,OVC250,0.00,VWS V14.01,2013-05-09 22:40:00,
2013-05-09 18:45:00,77.5,52.0,29.98,WSW,257,2.0,5.0,41,0.00,,OVC250,0.00,VWS V14.01,2013-05-09 22:45:00,
2013-05-09 18:50:00,77.4,52.5,29.98,South,191,2.0,3.0,42,0.00,,OVC250,0.00,VWS V14.01,2013-05-09 22:50:00,
2013-05-09 18:55:00,77.2,51.7,29.98,WSW,257,4.0,4.0,41,0.00,,OVC250,0.00,VWS V14.01,2013-05-09 22:55:00,
2013-05-09 19:00:00,77.2,52.4,29.98,WSW,250,1.0,1.0,42,0.00,,OVC250,0.00,VWS V14.01,2013-05-09 23:00:00,
2013-05-09 19:05:00,77.1,52.3,29.98,SSW,201,0.0,1.0,42,0.00,,OVC220,0.00,VWS V14.01,2013-05-09 23:05:00,
2013-05-09 19:10:00,76.9,52.1,29.98,SW,228,2.0,4.0,42,0.00,,OVC220,0.00,VWS V14.01,2013-05-09 23:10:00,
2013-05-09 19:15:00,76.8,52.6,29.98,WSW,255,3.0,3.0,43,0.00,,OVC220,0.00,VWS V14.01,2013-05-09 23:15:00,
2013-05-09 19:20:00,76.5,52.4,29.98,SSW,212,3.0,3.0,43,0.00,,OVC220,0.00,VWS V14.01,2013-05-09 23:20:00,
2013-05-09 19:25:00,76.3,52.2,29.98,SW,228,1.0,4.0,43,0.00,,OVC220,0.00,VWS V14.01,2013-05-09 23:25:00,
2013-05-09 19:30:00,76.1,52.6,29.98,SSW,211,2.0,4.0,44,0.00,,OVC220,0.00,VWS V14.01,2013-05-09 23:30:00,
2013-05-09 19:35:00,76.0,53.2,29.98,SE,136,1.0,3.0,45,0.00,,OVC220,0.00,VWS V14.01,2013-05-09 23:35:00,
2013-05-09 19:40:00,75.8,53.0,29.98,SW,229,3.0,4.0,45,0.00,,OVC220,0.00,VWS V14.01,2013-05-09 23:40:00,
2013-05-09 19:45:00,75.7,53.5,29.98,SSW,197,0.0,2.0,46,0.00,,OVC220,0.00,VWS V14.01,2013-05-09 23:45:00,
2013-05-09 19:50:00,75.5,53.3,29.99,SW,228,0.0,1.0,46,0.00,,OVC220,0.00,VWS V14.01,2013-05-09 23:50:00,
2013-05-09 19:55:00,75.3,53.7,29.99,SSW,213,1.0,3.0,47,0.00,,OVC220,0.00,VWS V14.01,2013-05-09 23:55:00,
2013-05-09 20:00:00,75.1,53.5,29.98,SW,231,2.0,2.0,47,0.00,,OVC220,0.00,VWS V14.01,2013-05-10 00:00:00,
2013-05-09 20:05:00,74.9,53.9,29.98,SSW,212,3.0,3.0,48,0.00,,OVC250,0.00,VWS V14.01,2013-05-10 00:05:00,
2013-05-09 20:10:00,74.7,53.7,29.98,SW,225,2.0,3.0,48,0.00,,OVC250,0.00,VWS V14.01,2013-05-10 00:10:00,
2013-05-09 20:15:00,74.5,54.1,29.98,SSW,211,2.0,2.0,49,0.00,,OVC250,0.00,VWS V14.01,2013-05-10 00:15:00,
2013-05-09 20:20:00,74.2,53.8,29.98,SSW,197,1.0,2.0,49,0.00,,OVC250,0.00,VWS V14.01,2013-05-10 00:20:00,
2013-05-09 20:25:00,73.8,54.0,29.98,South,180,1.0,3.0,50,0.00,,OVC250,0.00,VWS V14.01,2013-05-10 00:25:00,
2013-05-09 20:30:00,73.5,54.3,29.98,SSW,204,1.0,3.0,51,0.00,,OVC250,0.00,VWS V14.01,2013-05-10 00:30:00,
2013-05-09 20:35:00,73.2,54.5,29.98,South,191,1.0,3.0,52,0.00,,OVC250,0.00,VWS V14.01,2013-05-10 00:35:00,
2013-05-09 20:40:00,72.9,54.3,29.98,SW,219,2.0,3.0,52,0.00,,OVC250,0.00,VWS V14.01,2013-05-10 00:40:00,
2013-05-09 20:45:00,72.7,54.6,29.98,South,190,1.0,3.0,53,0.00,,OVC250,0.00,VWS V14.01,2013-05-10 00:45:00,
2013-05-09 20:50:00,72.4,54.8,29.98,SSW,192,1.0,2.0,54,0.00,,OVC250,0.00,VWS V14.01,2013-05-10 00:50:00,
2013-05-09 20:55:00,72.0,54.5,29.98,South,176,2.0,3.0,54,0.00,,OVC250,0.00,VWS V14.01,2013-05-10 00:55:00,
2013-05-09 21:00:00,71.8,54.8,29.98,South,170,1.0,2.0,55,0.00,,OVC250,0.00,VWS V14.01,2013-05-10 01:00:00,
2013-05-09 21:05:00,71.4,54.9,29.98,South,181,1.0,2.0,56,0.00,,OVC220,0.00,VWS V14.01,2013-05-10 01:05:00,
2013-05-09 21:10:00,71.2,54.7,29.99,SSW,201,1.0,2.0,56,0.00,,OVC220,0.00,VWS V14.01,2013-05-10 01:10:00,
2013-05-09 21:15:00,71.0,54.5,29.99,SSW,200,1.0,2.0,56,0.00,,OVC220,0.00,VWS V14.01,2013-05-10 01:15:00,
2013-05-09 21:20:00,70.8,54.8,29.99,SSW,212,2.0,3.0,57,0.00,,OVC220,0.00,VWS V14.01,2013-05-10 01:20:00,
2013-05-09 21:25:00,70.5,54.5,29.99,South,170,1.0,2.0,57,0.00,,OVC220,0.00,VWS V14.01,2013-05-10 01:25:00,
2013-05-09 21:30:00,70.2,54.3,29.99,SSW,197,2.0,2.0,57,0.00,,OVC220,0.00,VWS V14.01,2013-05-10 01:30:00,
2013-05-09 21:35:00,70.0,54.6,29.99,SSW,198,1.0,2.0,58,0.00,,OVC220,0.00,VWS V14.01,2013-05-10 01:35:00,
2013-05-09 21:40:00,69.8,54.4,29.99,South,173,2.0,2.0,58,0.00,,OVC220,0.00,VWS V14.01,2013-05-10 01:40:00,
2013-05-09 21:45:00,69.5,54.6,29.99,South,187,2.0,2.0,59,0.00,,OVC220,0.00,VWS V14.01,2013-05-10 01:45:00,
2013-05-09 21:50:00,69.2,54.7,30.00,SSW,194,2.0,2.0,60,0.00,,OVC220,0.00,VWS V14.01,2013-05-10 01:50:00,
2013-05-09 21:55:00,68.9,54.5,30.00,South,190,2.0,2.0,60,0.00,,OVC220,0.00,VWS V14.01,2013-05-10 01:55:00,
2013-05-09 22:00:00,68.7,54.7,30.00,SSW,195,2.0,2.0,61,0.00,,OVC220,0.00,VWS V14.01,2013-05-10 02:00:00,
2013-05-09 22:05:00,68.6,55.1,30.00,SSW,203,1.0,2.0,62,0.00,,OVC220,0.00,VWS V14.01,2013-05-10 02:05:00,
2013-05-09 22:10:00,68.3,54.8,30.00,SSW,198,1.0,2.0,62,0.00,,OVC220,0.00,VWS V14.01,2013-05-10 02:10:00,
2013-05-09 22:15:00,68.2,55.1,30.00,South,188,2.0,2.0,63,0.00,,OVC220,0.00,VWS V14.01,2013-05-10 02:15:00,
2013-05-09 22:20:00,68.1,55.0,30.00,SSW,208,2.0,3.0,63,0.00,,OVC220,0.00,VWS V14.01,2013-05-10 02:20:00,
2013-05-09 22:25:00,68.0,55.0,30.00,SSW,211,2.0,2.0,63,0.00,,OVC220,0.00,VWS V14.01,2013-05-10 02:25:00,
2013-05-09 22:30:00,68.0,55.0,30.00,SSW,195,1.0,3.0,63,0.00,,OVC220,0.00,VWS V14.01,2013-05-10 02:30:00,
2013-05-09 22:35:00,67.9,55.3,30.00,SSW,197,1.0,3.0,64,0.00,,OVC220,0.00,VWS V14.01,2013-05-10 02:35:00,
2013-05-09 22:40:00,67.8,55.2,30.00,SSW,203,1.0,2.0,64,0.00,,OVC220,0.00,VWS V14.01,2013-05-10 02:40:00,
2013-05-09 22:45:00,67.8,55.2,30.00,SSW,204,1.0,2.0,64,0.00,,OVC220,0.00,VWS V14.01,2013-05-10 02:45:00,
2013-05-09 22:50:00,67.7,55.1,30.00,South,173,2.0,3.0,64,0.00,,OVC220,0.00,VWS V14.01,2013-05-10 02:50:00,
2013-05-09 22:55:00,67.6,55.0,30.00,South,188,2.0,2.0,64,0.00,,OVC220,0.00,VWS V14.01,2013-05-10 02:55:00,
2013-05-09 23:00:00,67.6,55.0,30.00,SSW,207,3.0,3.0,64,0.00,,OVC220,0.00,VWS V14.01,2013-05-10 03:00:00,
2013-05-09 23:05:00,67.7,55.1,30.00,SSW,204,2.0,3.0,64,0.00,,OVC120,0.00,VWS V14.01,2013-05-10 03:05:00,
2013-05-09 23:10:00,67.7,55.1,30.00,SSW,211,3.0,4.0,64,0.00,,OVC120,0.00,VWS V14.01,2013-05-10 03:10:00,
2013-05-09 23:15:00,67.9,55.3,30.00,SSW,204,2.0,3.0,64,0.00,,OVC120,0.00,VWS V14.01,2013-05-10 03:15:00,
2013-05-09 23:20:00,68.0,55.4,30.00,SSW,194,2.0,4.0,64,0.00,,OVC120,0.00,VWS V14.01,2013-05-10 03:20:00,
2013-05-09 23:25:00,68.1,55.0,29.99,SSW,212,1.0,3.0,63,0.00,,OVC120,0.00,VWS V14.01,2013-05-10 03:25:00,
2013-05-09 23:30:00,68.2,55.1,29.99,SSW,205,2.0,2.0,63,0.00,,OVC120,0.00,VWS V14.01,2013-05-10 03:30:00,
2013-05-09 23:35:00,68.2,55.1,29.99,WSW,249,3.0,4.0,63,0.00,,OVC120,0.00,VWS V14.01,2013-05-10 03:35:00,
2013-05-09 23:40:00,68.3,55.2,30.00,South,173,5.0,5.0,63,0.00,,OVC120,0.00,VWS V14.01,2013-05-10 03:40:00,
2013-05-09 23:45:00,68.5,55.4,29.99,SW,217,4.0,5.0,63,0.00,,OVC120,0.00,VWS V14.01,2013-05-10 03:45:00,
2013-05-09 23:50:00,68.5,55.9,30.00,WNW,288,6.0,8.0,64,0.00,,OVC120,0.00,VWS V14.01,2013-05-10 03:50:00,
2013-05-09 23:55:00,68.1,55.9,30.00,WNW,282,2.0,6.0,65,0.00,,OVC120,0.00,VWS V14.01,2013-05-10 03:55:00,